Lurin, Peru
Current Conditions -  °F | °C
As of 6:00 PM on Monday 20 Oct 2014 (Local Time) from SPIM Reporting Station
Broken Clouds Broken Clouds  
Wind Chill: 19°   Ceiling: 17000
Heat Index: 19°   Visibility: 6mi
Dew Point: 15°   Wind: 10mph
Humidity: 78%   Direction: 200°SSW
Pressure: 29.91"   Gusts: NA
Location:  12.32°S, 76.25°W
Report Text: SPIM 202300Z 20009KT 9999 SCT012 BKN170 19/15 Q1013 NOSIG RMK PP000
Loading
Personal Weather Stations






























Interactive Weather Map
Tropical Storm Tracking
New forecast layout! Learn more

10-Day Weather Forecast

Advertisements
Track Severe Weather on mobile